Terminal Aerodrome Forecast
Issued by NWS Twin Cities, MN

Home | Current Version | Previous Version | Graphics & Text | Print | Product List | Glossary On
Versions: 1 2 3 4 5 6 7 8 9 10 11 12 13 14 15 16 17 18 19 20 21 22
000
FTUS43 KMPX 202300
TAFSTC
TAF
KSTC 202333Z 2100/2124 30010G18KT P6SM SCT040
     FM210400 30010KT P6SM SCT025
     FM211200 33012KT P6SM BKN020
     FM211700 34010KT P6SM BKN035=

USA.gov is the U.S. government's official web portal to all federal, state and local government web resources and services.